createdAt,value
2019-05-30T00:00:14.493Z,101118.40
2019-05-30T00:03:04.870Z,101116.09
2019-05-30T00:06:08.448Z,101114.40
2019-05-30T00:09:12.194Z,101118.00
2019-05-30T00:12:15.694Z,101123.95
2019-05-30T00:15:19.213Z,101127.45
2019-05-30T00:18:22.713Z,101126.62
2019-05-30T00:21:26.139Z,101124.31
2019-05-30T00:24:29.601Z,101125.86
2019-05-30T00:27:33.118Z,101133.50
2019-05-30T00:30:36.533Z,101130.83
2019-05-30T00:33:40.124Z,101119.80
2019-05-30T00:36:43.648Z,101119.41
2019-05-30T00:39:48.147Z,101121.13
2019-05-30T00:42:51.558Z,101126.68
2019-05-30T00:45:55.880Z,101127.52
2019-05-30T00:49:00.187Z,101128.73
2019-05-30T00:52:05.083Z,101129.34
2019-05-30T00:55:08.698Z,101123.83
2019-05-30T00:58:12.127Z,101129.53
2019-05-30T01:01:15.726Z,101127.62
2019-05-30T01:04:20.118Z,101120.19
2019-05-30T01:07:23.547Z,101125.16
2019-05-30T01:10:27.051Z,101124.30
2019-05-30T01:13:30.555Z,101129.63
2019-05-30T01:16:34.065Z,101136.59
2019-05-30T01:19:37.706Z,101130.97
2019-05-30T01:22:42.311Z,101132.41
2019-05-30T01:25:45.784Z,101132.05
2019-05-30T01:28:49.182Z,101129.95
2019-05-30T01:31:52.787Z,101129.59
2019-05-30T01:34:57.559Z,101125.48
2019-05-30T01:38:02.257Z,101127.17
2019-05-30T01:41:05.969Z,101133.95
2019-05-30T01:44:09.525Z,101134.42
2019-05-30T01:47:12.953Z,101131.39
2019-05-30T01:50:18.034Z,101125.08
2019-05-30T01:53:21.507Z,101125.22
2019-05-30T01:56:26.124Z,101133.33
2019-05-30T01:59:29.616Z,101134.27
2019-05-30T02:02:34.154Z,101140.46
2019-05-30T02:05:37.666Z,101141.80
2019-05-30T02:08:41.166Z,101142.77
2019-05-30T02:11:45.676Z,101143.70
2019-05-30T02:14:49.173Z,101143.70
2019-05-30T02:17:52.673Z,101141.53
2019-05-30T02:20:56.088Z,101142.58
2019-05-30T02:23:59.819Z,101146.58
2019-05-30T02:27:04.165Z,101149.38
2019-05-30T02:30:11.338Z,101143.19
2019-05-30T02:33:13.457Z,101151.18
2019-05-30T02:36:16.958Z,101153.84
2019-05-30T02:39:20.458Z,101159.55
2019-05-30T02:42:24.991Z,101150.81
2019-05-30T02:45:28.406Z,101150.31
2019-05-30T02:48:31.904Z,101148.16
2019-05-30T02:51:36.503Z,101147.75
2019-05-30T02:54:39.937Z,101147.86
2019-05-30T02:57:43.346Z,101157.09
2019-05-30T03:00:46.813Z,101162.05
2019-05-30T03:03:50.349Z,101160.72
2019-05-30T03:06:53.751Z,101155.03
2019-05-30T03:09:57.212Z,101157.80
2019-05-30T03:13:01.869Z,101159.49
2019-05-30T03:16:07.443Z,101166.63
2019-05-30T03:19:12.284Z,101160.93
2019-05-30T03:22:16.128Z,101164.56
2019-05-30T03:25:19.735Z,101175.59
2019-05-30T03:28:23.350Z,101177.89
2019-05-30T03:31:29.589Z,101177.53
2019-05-30T03:34:32.304Z,101179.80
2019-05-30T03:37:35.904Z,101183.33
2019-05-30T03:40:39.320Z,101193.73
2019-05-30T03:43:42.788Z,101195.89
2019-05-30T03:46:51.521Z,101190.66
2019-05-30T03:49:55.117Z,101191.42
2019-05-30T03:52:58.622Z,101201.33
2019-05-30T03:56:06.665Z,101204.49
2019-05-30T03:59:22.349Z,101204.39
2019-05-30T04:02:56.078Z,101213.56
2019-05-30T04:05:51.066Z,101212.09
2019-05-30T04:08:57.777Z,101218.66
2019-05-30T04:12:14.985Z,101223.52
2019-05-30T04:15:31.250Z,101220.59
2019-05-30T04:18:34.719Z,101218.89
2019-05-30T04:21:38.126Z,101223.25
2019-05-30T04:24:41.616Z,101220.22
2019-05-30T04:27:45.119Z,101225.92
2019-05-30T04:30:48.535Z,101221.42
2019-05-30T04:33:52.147Z,101229.92
2019-05-30T04:36:55.623Z,101235.62
2019-05-30T04:39:59.123Z,101230.28
2019-05-30T04:43:02.532Z,101237.41
2019-05-30T04:46:06.112Z,101233.92
2019-05-30T04:49:12.174Z,101234.02
2019-05-30T04:52:20.476Z,101230.39
2019-05-30T04:55:23.130Z,101239.25
2019-05-30T04:58:26.479Z,101241.05
2019-05-30T05:01:29.991Z,101234.88
2019-05-30T05:04:34.515Z,101234.48
2019-05-30T05:07:39.042Z,101235.62
2019-05-30T05:10:42.549Z,101238.28
2019-05-30T05:13:46.032Z,101242.65
2019-05-30T05:16:49.562Z,101241.31
2019-05-30T05:19:53.053Z,101242.65
2019-05-30T05:22:56.685Z,101245.31
2019-05-30T05:26:01.231Z,101246.64
2019-05-30T05:29:05.187Z,101250.17
2019-05-30T05:32:08.680Z,101246.28
2019-05-30T05:35:14.670Z,101247.14
2019-05-30T05:38:18.330Z,101250.64
2019-05-30T05:41:22.277Z,101249.91
2019-05-30T05:44:26.069Z,101249.55
2019-05-30T05:47:29.817Z,101251.04
2019-05-30T05:50:33.441Z,101253.41
2019-05-30T05:53:37.018Z,101252.94
2019-05-30T05:56:40.565Z,101255.14
2019-05-30T05:59:44.078Z,101252.67
2019-05-30T06:02:47.585Z,101258.27
2019-05-30T06:05:53.227Z,101255.04
2019-05-30T06:08:56.221Z,101250.60
2019-05-30T06:11:59.721Z,101257.06
2019-05-30T06:15:03.407Z,101254.80
2019-05-30T06:18:06.925Z,101257.83
2019-05-30T06:21:10.437Z,101255.53
2019-05-30T06:24:14.050Z,101252.50
2019-05-30T06:27:17.825Z,101259.42
2019-05-30T06:30:22.369Z,101255.33
2019-05-30T06:33:27.128Z,101256.66
2019-05-30T06:36:30.792Z,101262.36
2019-05-30T06:39:34.360Z,101255.69
2019-05-30T06:42:37.805Z,101252.92
2019-05-30T06:45:41.676Z,101252.09
2019-05-30T06:48:45.214Z,101248.82
2019-05-30T06:51:48.722Z,101249.69
2019-05-30T06:54:52.243Z,101252.03
2019-05-30T06:57:55.732Z,101256.61
2019-05-30T07:00:59.357Z,101252.66
2019-05-30T07:04:03.214Z,101252.09
2019-05-30T07:07:07.263Z,101257.78
2019-05-30T07:10:11.527Z,101249.78
2019-05-30T07:13:15.172Z,101253.31
2019-05-30T07:16:18.766Z,101254.18
2019-05-30T07:19:23.256Z,101261.22
2019-05-30T07:22:27.753Z,101252.84
2019-05-30T07:25:32.359Z,101251.38
2019-05-30T07:28:36.012Z,101250.55
2019-05-30T07:31:39.559Z,101249.21
2019-05-30T07:34:45.949Z,101246.91
2019-05-30T07:37:48.433Z,101253.11
2019-05-30T07:40:52.924Z,101252.61
2019-05-30T07:43:56.448Z,101256.03
2019-05-30T07:46:59.927Z,101257.37
2019-05-30T07:50:03.562Z,101258.70
2019-05-30T07:53:07.197Z,101257.27
2019-05-30T07:56:10.653Z,101262.13
2019-05-30T07:59:14.137Z,101249.52
2019-05-30T08:02:18.736Z,101257.16
2019-05-30T08:05:24.623Z,101250.13
2019-05-30T08:08:29.784Z,101245.16
2019-05-30T08:11:33.288Z,101250.02
2019-05-30T08:44:42.606Z,101227.20
2019-05-30T08:47:46.101Z,101235.20
2019-05-30T08:50:49.619Z,101235.61
2019-05-30T08:53:53.179Z,101233.41
2019-05-30T08:56:56.606Z,101231.20
2019-05-30T09:00:00.105Z,101229.30
2019-05-30T09:03:03.632Z,101232.53
2019-05-30T09:06:07.103Z,101233.87
2019-05-30T09:09:10.606Z,101226.47
2019-05-30T09:12:15.127Z,101224.17
2019-05-30T09:15:21.841Z,101226.84
2019-05-30T09:18:24.126Z,101217.14
2019-05-30T09:21:27.701Z,101218.00
2019-05-30T09:24:32.288Z,101217.86
2019-05-30T09:27:39.018Z,101221.50
2019-05-30T09:30:43.542Z,101213.50
2019-05-30T09:33:48.612Z,101213.50
2019-05-30T09:36:52.408Z,101203.58
2019-05-30T09:39:55.878Z,101195.58
2019-05-30T09:42:59.517Z,101194.97
2019-05-30T09:46:03.078Z,101186.39
2019-05-30T09:49:06.570Z,101188.08
2019-05-30T09:52:10.067Z,101186.75
2019-05-30T09:55:14.957Z,101184.95
2019-05-30T09:58:18.585Z,101185.20
2019-05-30T10:01:22.009Z,101185.09
2019-05-30T10:04:25.523Z,101184.52
2019-05-30T10:07:29.011Z,101181.84
2019-05-30T10:10:32.539Z,101178.67
2019-05-30T10:13:37.038Z,101179.44
2019-05-30T10:16:40.550Z,101185.13
2019-05-30T10:19:45.390Z,101179.33
2019-05-30T10:22:51.682Z,101173.88
2019-05-30T10:25:54.728Z,101169.66
2019-05-30T10:28:58.349Z,101176.80
2019-05-30T10:32:01.936Z,101177.05
2019-05-30T10:35:06.438Z,101172.69
2019-05-30T10:38:09.970Z,101164.47
2019-05-30T10:41:14.486Z,101167.13
2019-05-30T10:44:17.981Z,101163.85
2019-05-30T10:47:22.547Z,101157.17
2019-05-30T10:50:26.021Z,101158.69
2019-05-30T10:53:30.544Z,101156.02
2019-05-30T10:56:35.067Z,101149.63
2019-05-30T10:59:38.564Z,101152.19
2019-05-30T11:02:42.067Z,101160.56
2019-05-30T11:05:50.587Z,101152.08
2019-05-30T11:08:54.782Z,101150.24
2019-05-30T11:11:58.298Z,101139.56
2019-05-30T11:15:04.152Z,101136.31
2019-05-30T11:18:07.578Z,101134.97
2019-05-30T11:21:11.058Z,101135.95
2019-05-30T11:24:14.683Z,101136.31
2019-05-30T11:27:18.421Z,101129.64
2019-05-30T11:30:21.985Z,101130.35
2019-05-30T11:33:25.479Z,101127.86
2019-05-30T11:36:28.977Z,101129.44
2019-05-30T11:39:34.524Z,101114.64
2019-05-30T11:42:38.025Z,101112.69
2019-05-30T11:45:41.658Z,101105.43
2019-05-30T11:48:45.238Z,101101.06
2019-05-30T11:51:49.687Z,101098.64
2019-05-30T11:54:54.161Z,101098.89
2019-05-30T11:57:58.508Z,101091.85
2019-05-30T12:01:01.907Z,101087.45
